Time;durP1;ratioP1;P1;durP2;ratioP2;P2;SDS_P1;SDS_P2;PMS_P1;PMS_P2;Temp;Humidity;BMP_temperature;BMP_pressure;BME280_temperature;BME280_humidity;BME280_pressure;Samples;Min_cycle;Max_cycle;Signal;HPM_P1;HPM_P2
2024/01/23 00:09:05;;;;;;;27.55;7.90;;;;;;;;;;4898854;29;20052;-90
2024/01/23 00:19:07;;;;;;;36.00;8.60;;;;;;;;;;4946814;28;20090;-88
2024/01/23 00:26:17;;;;;;;25.70;7.67;;;;;;;;;;4916225;28;20193;-90
2024/01/23 00:29:33;;;;;;;29.05;8.30;;;;;;;;;;4902087;29;20605;-88
2024/01/23 00:32:31;;;;;;;;;;;;;;;;;;;;;
2024/01/23 00:35:29;;;;;;;25.60;8.18;;;;;;;;;;4958022;28;20062;-88
2024/01/23 00:38:13;;;;;;;38.95;8.07;;;;;;;;;;4941414;29;20047;-87
2024/01/23 00:41:11;;;;;;;;;;;;;;;;;;;;;
2024/01/23 00:44:00;;;;;;;25.52;8.57;;;;;;;;;;4967776;28;20046;-90
2024/01/23 00:46:46;;;;;;;33.30;8.38;;;;;;;;;;4960863;28;20066;-87
2024/01/23 00:49:41;;;;;;;30.42;8.82;;;;;;;;;;4960622;28;20457;-90
2024/01/23 00:52:30;;;;;;;33.67;8.27;;;;;;;;;;4961638;28;20050;-87
2024/01/23 00:55:41;;;;;;;32.97;8.18;;;;;;;;;;4960384;28;20170;-91
2024/01/23 00:58:59;;;;;;;;;;;;;;;;;;;;;
2024/01/23 01:05:10;;;;;;;30.25;9.18;;;;;;;;;;4927865;29;20066;-88
2024/01/23 01:11:11;;;;;;;41.20;9.85;;;;;;;;;;4934338;29;20087;-89
2024/01/23 01:14:03;;;;;;;34.00;8.98;;;;;;;;;;4921841;29;20083;-88
2024/01/23 01:17:04;;;;;;;32.42;8.20;;;;;;;;;;4928606;29;20051;-90
2024/01/23 01:20:15;;;;;;;35.45;8.50;;;;;;;;;;4940503;29;20418;-89
2024/01/23 01:26:43;;;;;;;41.30;9.65;;;;;;;;;;4969211;28;20139;-89
2024/01/23 01:33:04;;;;;;;36.47;8.60;;;;;;;;;;4954218;28;20095;-89
2024/01/23 01:43:28;;;;;;;30.15;8.27;;;;;;;;;;4908123;28;20077;-88
2024/01/23 01:46:13;;;;;;;32.17;9.30;;;;;;;;;;4909472;29;20789;-87
2024/01/23 01:49:00;;;;;;;40.40;9.60;;;;;;;;;;4945185;28;20050;-89
2024/01/23 01:51:46;;;;;;;37.03;9.77;;;;;;;;;;4972116;28;20397;-88
2024/01/23 01:54:39;;;;;;;41.30;10.13;;;;;;;;;;4962853;28;20100;-86
2024/01/23 01:57:33;;;;;;;30.00;9.00;;;;;;;;;;4925382;28;20050;-88
2024/01/23 02:00:41;;;;;;;33.58;9.07;;;;;;;;;;4955359;28;20041;-87
2024/01/23 02:03:31;;;;;;;20.42;8.57;;;;;;;;;;4938174;29;20130;-87
2024/01/23 02:06:28;;;;;;;29.95;9.20;;;;;;;;;;4966160;28;20042;-87
2024/01/23 02:16:27;;;;;;;28.02;8.13;;;;;;;;;;4977264;28;20523;-89
2024/01/23 02:19:19;;;;;;;30.83;10.80;;;;;;;;;;4961995;28;20042;-90
2024/01/23 02:22:11;;;;;;;36.83;8.37;;;;;;;;;;4962297;28;20511;-88
2024/01/23 02:25:14;;;;;;;22.55;7.93;;;;;;;;;;4942510;29;20520;-91
2024/01/23 02:31:39;;;;;;;28.00;8.35;;;;;;;;;;4977226;28;20061;-91
2024/01/23 02:34:32;;;;;;;45.28;10.90;;;;;;;;;;4952658;29;20078;-88
2024/01/23 02:37:16;;;;;;;36.10;9.27;;;;;;;;;;4942973;29;20098;-88
2024/01/23 02:40:00;;;;;;;37.03;8.95;;;;;;;;;;4950697;28;20490;-87
2024/01/23 02:43:05;;;;;;;27.50;9.05;;;;;;;;;;4942879;29;20512;-88
2024/01/23 02:45:54;;;;;;;38.00;8.80;;;;;;;;;;4942697;29;20043;-88
2024/01/23 02:48:58;;;;;;;36.92;8.40;;;;;;;;;;4942566;29;20058;-88
2024/01/23 02:51:50;;;;;;;33.25;8.02;;;;;;;;;;4942452;29;20075;-88
2024/01/23 02:54:56;;;;;;;41.60;8.20;;;;;;;;;;4960168;28;20049;-89
2024/01/23 02:57:40;;;;;;;40.13;9.35;;;;;;;;;;4946848;29;20049;-88
2024/01/23 03:00:28;;;;;;;33.00;9.27;;;;;;;;;;4945101;29;20101;-89
2024/01/23 03:03:32;;;;;;;36.85;9.40;;;;;;;;;;4946595;28;20041;-89
2024/01/23 03:13:44;;;;;;;32.25;9.80;;;;;;;;;;4937783;29;20049;-87
2024/01/23 03:19:33;;;;;;;;;;;;;;;;;;4965281;28;20065;-86
2024/01/23 03:22:45;;;;;;;44.67;9.82;;;;;;;;;;4956888;28;19917;-90
2024/01/23 03:32:40;;;;;;;37.28;8.55;;;;;;;;;;4914238;29;20346;-88
2024/01/23 03:49:35;;;;;;;36.17;8.02;;;;;;;;;;4909818;29;20043;-89
2024/01/23 03:52:22;;;;;;;39.35;8.25;;;;;;;;;;4930832;29;20055;-90
2024/01/23 03:55:25;;;;;;;;;;;;;;;;;;;;;
2024/01/23 04:05:25;;;;;;;34.63;8.57;;;;;;;;;;4956879;28;20127;-88
2024/01/23 04:08:09;;;;;;;41.45;9.15;;;;;;;;;;4968327;28;20042;-88
2024/01/23 04:10:54;;;;;;;22.42;7.45;;;;;;;;;;4941797;29;20047;-90
2024/01/23 04:13:41;;;;;;;37.88;9.20;;;;;;;;;;4956151;29;20102;-89
2024/01/23 04:16:24;;;;;;;33.00;7.90;;;;;;;;;;4949834;28;20048;-89
2024/01/23 04:19:09;;;;;;;35.72;9.18;;;;;;;;;;4960489;28;20130;-88
2024/01/23 04:21:54;;;;;;;44.08;8.20;;;;;;;;;;4948430;29;20444;-87
2024/01/23 04:24:51;;;;;;;38.25;7.53;;;;;;;;;;4936647;29;20171;-89
2024/01/23 04:27:35;;;;;;;27.63;8.20;;;;;;;;;;4941456;29;20077;-87
2024/01/23 04:37:24;;;;;;;34.40;8.80;;;;;;;;;;4917965;29;20595;-90
2024/01/23 04:40:12;;;;;;;48.55;9.65;;;;;;;;;;4903033;29;20059;-88
2024/01/23 04:43:05;;;;;;;45.35;8.70;;;;;;;;;;4926728;29;20045;-88
2024/01/23 04:45:54;;;;;;;39.90;9.00;;;;;;;;;;4940852;29;20089;-89
2024/01/23 04:48:38;;;;;;;33.92;8.77;;;;;;;;;;4940503;29;20050;-86
2024/01/23 04:51:24;;;;;;;35.70;8.95;;;;;;;;;;4940807;29;20054;-89
2024/01/23 04:54:23;;;;;;;33.47;8.55;;;;;;;;;;4940643;29;20058;-88
2024/01/23 04:57:08;;;;;;;36.85;8.45;;;;;;;;;;4940814;29;20042;-88
2024/01/23 05:00:07;;;;;;;39.92;8.65;;;;;;;;;;4940758;29;20061;-88
2024/01/23 05:02:55;;;;;;;39.72;7.88;;;;;;;;;;4940933;29;20054;-88
2024/01/23 05:05:44;;;;;;;35.15;7.75;;;;;;;;;;4940869;29;20515;-88
2024/01/23 05:08:28;;;;;;;40.63;10.35;;;;;;;;;;4943205;29;20042;-91
2024/01/23 05:11:18;;;;;;;34.95;8.15;;;;;;;;;;4944297;29;20086;-88
2024/01/23 05:14:16;;;;;;;45.70;9.05;;;;;;;;;;4944063;29;20041;-89
2024/01/23 05:17:13;;;;;;;32.10;7.70;;;;;;;;;;4944838;29;20046;-89
2024/01/23 05:20:14;;;;;;;40.00;8.95;;;;;;;;;;4944251;29;20046;-87
2024/01/23 05:30:18;;;;;;;30.92;9.50;;;;;;;;;;4864572;29;20081;-87
2024/01/23 05:37:26;;;;;;;;;;;;;;;;;;;;;
2024/01/23 05:44:35;;;;;;;27.02;7.45;;;;;;;;;;4865368;29;20080;-88
2024/01/23 05:47:58;;;;;;;29.15;8.00;;;;;;;;;;4862693;29;20109;-88
2024/01/23 05:54:26;;;;;;;35.58;7.63;;;;;;;;;;4852743;29;20044;-89
2024/01/23 05:57:14;;;;;;;34.83;8.95;;;;;;;;;;4929214;29;20038;-88
2024/01/23 06:00:05;;;;;;;30.17;8.77;;;;;;;;;;4952838;28;20061;-87
2024/01/23 06:06:20;;;;;;;47.05;9.00;;;;;;;;;;4957473;28;20102;-90
2024/01/23 06:12:43;;;;;;;25.50;7.53;;;;;;;;;;4957667;29;20109;-87
2024/01/23 06:15:44;;;;;;;;;;;;;;;;;;;;;
2024/01/23 06:21:51;;;;;;;26.45;6.90;;;;;;;;;;4929140;29;20046;-89
2024/01/23 06:28:17;;;;;;;32.63;7.20;;;;;;;;;;4935482;29;20099;-92
2024/01/23 06:34:52;;;;;;;29.73;7.53;;;;;;;;;;4939062;29;20051;-89
2024/01/23 06:38:16;;;;;;;38.45;7.90;;;;;;;;;;4918555;29;20084;-91
2024/01/23 06:41:04;;;;;;;;;;;;;;;;;;4918987;29;20056;-89
2024/01/23 07:09:33;;;;;;;45.05;8.05;;;;;;;;;;4938642;29;20508;-87
2024/01/23 07:15:50;;;;;;;40.55;7.47;;;;;;;;;;4938649;29;19926;-93
2024/01/23 08:01:37;;;;;;;45.38;8.02;;;;;;;;;;4979045;28;20057;-90
2024/01/23 08:12:00;;;;;;;31.33;10.88;;;;;;;;;;4978915;28;20061;-88
2024/01/23 08:14:59;;;;;;;44.78;15.32;;;;;;;;;;4941977;29;20050;-85
2024/01/23 08:25:33;;;;;;;;;;;;;;;;;;;;;
2024/01/23 08:28:42;;;;;;;53.50;36.55;;;;;;;;;;4942087;29;20050;-92
2024/01/23 08:35:32;;;;;;;52.22;41.60;;;;;;;;;;4942485;29;20532;-89
2024/01/23 08:42:18;;;;;;;66.15;41.35;;;;;;;;;;4943874;29;20141;-91
2024/01/23 08:48:56;;;;;;;58.13;34.15;;;;;;;;;;4912846;29;20127;-89
2024/01/23 08:51:43;;;;;;;64.30;33.72;;;;;;;;;;4930098;29;20046;-90
2024/01/23 08:58:15;;;;;;;69.28;26.73;;;;;;;;;;4950959;29;20046;-90
2024/01/23 09:04:18;;;;;;;73.75;35.63;;;;;;;;;;4948627;29;20042;-90
2024/01/23 09:07:09;;;;;;;52.42;33.35;;;;;;;;;;4932507;29;20550;-89
2024/01/23 09:13:09;;;;;;;83.03;30.92;;;;;;;;;;4950839;28;20079;-89
2024/01/23 09:26:59;;;;;;;68.43;27.25;;;;;;;;;;4941103;29;20066;-90
2024/01/23 09:33:19;;;;;;;58.53;27.40;;;;;;;;;;4937928;29;20091;-90
2024/01/23 09:36:38;;;;;;;;;;;;;;;;;;;;;
2024/01/23 09:39:34;;;;;;;;;;;;;;;;;;;;;
2024/01/23 09:46:07;;;;;;;55.58;25.63;;;;;;;;;;4943322;29;20047;-90
2024/01/23 09:48:52;;;;;;;60.08;24.90;;;;;;;;;;4949132;29;20059;-90
2024/01/23 09:51:41;;;;;;;52.60;25.15;;;;;;;;;;4946764;29;20034;-89
2024/01/23 09:54:31;;;;;;;40.25;24.20;;;;;;;;;;4945491;28;20079;-89
2024/01/23 09:57:23;;;;;;;44.65;23.63;;;;;;;;;;4942398;29;20178;-89
2024/01/23 10:00:11;;;;;;;58.03;26.17;;;;;;;;;;4948069;29;20179;-89
2024/01/23 10:03:00;;;;;;;54.10;26.95;;;;;;;;;;4928902;29;20045;-89
2024/01/23 10:05:50;;;;;;;54.08;25.08;;;;;;;;;;4944115;29;20070;-89
2024/01/23 10:12:00;;;;;;;64.95;27.63;;;;;;;;;;4948497;29;20046;-89
2024/01/23 10:15:26;;;;;;;;;;;;;;;;;;;;;
2024/01/23 10:18:20;;;;;;;;;;;;;;;;;;;;;
2024/01/23 10:21:46;;;;;;;53.97;26.45;;;;;;;;;;4942903;29;20050;-88
2024/01/23 10:24:52;;;;;;;;;;;;;;;;;;;;;
2024/01/23 10:31:35;;;;;;;44.60;19.90;;;;;;;;;;4946769;29;20441;-89
2024/01/23 11:21:40;;;;;;;;;;;;;;;;;;;;;
2024/01/23 11:57:26;;;;;;;24.30;21.25;;;;;;;;;;4934290;29;20053;-90
2024/01/23 12:00:15;;;;;;;96.25;25.67;;;;;;;;;;4942223;28;20041;-90
2024/01/23 12:03:11;;;;;;;108.90;29.23;;;;;;;;;;4942704;28;20045;-89
2024/01/23 12:05:55;;;;;;;22.88;20.98;;;;;;;;;;4951959;28;20096;-88
2024/01/23 12:08:39;;;;;;;23.10;19.70;;;;;;;;;;4947803;28;20121;-89
2024/01/23 12:11:30;;;;;;;26.10;22.35;;;;;;;;;;4949091;28;20856;-89
2024/01/23 12:14:26;;;;;;;23.13;20.88;;;;;;;;;;4952165;28;20098;-89
2024/01/23 12:17:27;;;;;;;26.23;20.15;;;;;;;;;;4947275;28;20094;-88
2024/01/23 12:20:11;;;;;;;21.27;18.88;;;;;;;;;;4949901;28;20540;-87
2024/01/23 12:22:56;;;;;;;22.05;18.77;;;;;;;;;;4946262;28;20033;-86
2024/01/23 12:25:40;;;;;;;19.92;18.00;;;;;;;;;;4946899;28;20033;-90
2024/01/23 12:28:24;;;;;;;20.50;18.45;;;;;;;;;;4944729;28;20559;-89
2024/01/23 12:31:14;;;;;;;21.30;19.38;;;;;;;;;;4952896;28;20194;-87
2024/01/23 12:33:58;;;;;;;21.05;19.27;;;;;;;;;;4948803;28;20094;-89
2024/01/23 12:36:48;;;;;;;20.35;18.75;;;;;;;;;;4970311;28;20049;-86
2024/01/23 12:39:37;;;;;;;19.35;17.73;;;;;;;;;;4944090;28;20057;-87
2024/01/23 12:42:25;;;;;;;21.20;19.42;;;;;;;;;;4967003;28;20110;-90
2024/01/23 12:45:11;;;;;;;20.67;18.67;;;;;;;;;;4961449;28;20497;-87
2024/01/23 12:48:03;;;;;;;17.70;16.35;;;;;;;;;;4950317;28;20122;-87
2024/01/23 12:50:47;;;;;;;17.15;15.55;;;;;;;;;;4951318;28;20169;-87
2024/01/23 12:53:31;;;;;;;17.25;15.57;;;;;;;;;;4947457;28;20042;-87
2024/01/23 12:56:15;;;;;;;20.70;18.95;;;;;;;;;;4950184;28;20496;-87
2024/01/23 12:59:05;;;;;;;17.95;16.55;;;;;;;;;;4945277;28;20045;-88
2024/01/23 13:05:26;;;;;;;22.33;20.85;;;;;;;;;;4964419;28;20110;-88
2024/01/23 13:11:36;;;;;;;20.35;18.75;;;;;;;;;;4959741;28;20090;-90
2024/01/23 13:14:36;;;;;;;21.67;19.08;;;;;;;;;;4947403;28;20046;-87
2024/01/23 13:17:31;;;;;;;20.65;19.17;;;;;;;;;;4947531;28;20042;-89
2024/01/23 13:20:17;;;;;;;22.17;20.63;;;;;;;;;;4955840;28;20050;-87
2024/01/23 13:23:01;;;;;;;21.80;20.27;;;;;;;;;;4945444;28;20046;-88
2024/01/23 13:25:48;;;;;;;20.05;18.67;;;;;;;;;;4946718;28;20046;-88
2024/01/23 13:28:35;;;;;;;21.42;19.65;;;;;;;;;;4948909;28;20042;-87
2024/01/23 13:31:24;;;;;;;19.50;18.02;;;;;;;;;;4951265;28;20589;-89
2024/01/23 13:34:13;;;;;;;18.20;16.90;;;;;;;;;;4946498;28;20062;-89
2024/01/23 13:37:58;;;;;;;18.92;17.63;;;;;;;;;;4949185;28;20082;-90
2024/01/23 13:48:13;;;;;;;16.10;15.10;;;;;;;;;;4966500;28;20101;-88
2024/01/23 13:51:01;;;;;;;17.65;16.40;;;;;;;;;;4954934;28;20116;-86
2024/01/23 13:53:56;;;;;;;19.00;17.75;;;;;;;;;;4967321;28;20038;-87
2024/01/23 13:57:04;;;;;;;19.67;18.45;;;;;;;;;;4952455;28;20042;-88
2024/01/23 13:59:55;;;;;;;18.30;17.13;;;;;;;;;;4953618;28;20552;-87
2024/01/23 14:02:51;;;;;;;18.63;17.52;;;;;;;;;;4948911;28;20037;-87
2024/01/23 14:05:41;;;;;;;19.23;17.92;;;;;;;;;;4954368;28;20466;-88
2024/01/23 14:08:42;;;;;;;17.98;16.77;;;;;;;;;;4956274;28;20158;-89
2024/01/23 14:11:58;;;;;;;19.33;18.13;;;;;;;;;;4947007;29;20095;-88
2024/01/23 14:14:44;;;;;;;18.33;17.17;;;;;;;;;;4939824;29;20082;-87
2024/01/23 14:21:08;;;;;;;19.75;18.52;;;;;;;;;;4947813;29;20048;-88
2024/01/23 14:24:00;;;;;;;18.00;16.90;;;;;;;;;;4951799;29;20094;-89
2024/01/23 14:27:03;;;;;;;19.52;18.42;;;;;;;;;;4930157;29;20069;-89
2024/01/23 14:29:51;;;;;;;19.70;18.60;;;;;;;;;;4947621;29;20062;-88
2024/01/23 14:32:46;;;;;;;20.30;19.30;;;;;;;;;;4927473;29;20042;-88
2024/01/23 14:35:35;;;;;;;20.60;19.60;;;;;;;;;;4949027;29;20058;-90
2024/01/23 14:38:28;;;;;;;19.30;18.30;;;;;;;;;;4934690;29;20078;-90
2024/01/23 14:41:13;;;;;;;19.60;18.50;;;;;;;;;;4930368;29;20094;-89
2024/01/23 14:43:59;;;;;;;19.27;18.27;;;;;;;;;;4932250;29;20046;-90
2024/01/23 14:46:47;;;;;;;18.33;17.38;;;;;;;;;;4927093;29;20053;-90
2024/01/23 14:49:31;;;;;;;20.58;19.48;;;;;;;;;;4926639;29;20739;-90
2024/01/23 14:52:15;;;;;;;20.02;18.83;;;;;;;;;;4930577;29;20070;-89
2024/01/23 14:54:59;;;;;;;20.60;19.67;;;;;;;;;;4926494;29;20050;-89
2024/01/23 14:57:46;;;;;;;19.13;18.13;;;;;;;;;;4936030;29;20095;-88
2024/01/23 15:04:05;;;;;;;17.70;16.80;;;;;;;;;;4940753;29;20086;-90
2024/01/23 15:07:12;;;;;;;19.45;18.33;;;;;;;;;;4927391;29;20062;-90
2024/01/23 15:10:02;;;;;;;16.75;15.85;;;;;;;;;;4933654;29;20046;-90
2024/01/23 15:12:54;;;;;;;19.48;18.48;;;;;;;;;;4948502;28;20106;-88
2024/01/23 15:15:41;;;;;;;21.67;20.48;;;;;;;;;;4944372;28;20058;-88
2024/01/23 15:18:27;;;;;;;19.30;18.20;;;;;;;;;;4951514;28;20119;-88
2024/01/23 15:21:49;;;;;;;18.10;16.92;;;;;;;;;;4949783;28;20042;-90
2024/01/23 15:24:56;;;;;;;17.73;16.35;;;;;;;;;;4948177;28;20094;-90
2024/01/23 15:27:42;;;;;;;17.67;16.80;;;;;;;;;;4966240;28;20050;-87
2024/01/23 15:34:01;;;;;;;17.83;16.65;;;;;;;;;;4956547;28;20049;-91
2024/01/23 15:44:02;;;;;;;19.08;17.98;;;;;;;;;;4957262;28;20073;-90
2024/01/23 15:46:51;;;;;;;20.98;19.77;;;;;;;;;;4950709;28;20043;-90
2024/01/23 16:19:02;;;;;;;12.85;12.20;;;;;;;;;;4945423;28;20099;-90
2024/01/23 16:22:19;;;;;;;;;;;;;;;;;;;;;
2024/01/23 17:12:41;;;;;;;20.13;18.23;;;;;;;;;;4962959;28;20055;-89
2024/01/23 17:48:44;;;;;;;10.45;9.75;;;;;;;;;;4969705;28;20453;-86
2024/01/23 18:02:59;;;;;;;10.57;9.88;;;;;;;;;;4979611;28;20046;-88
2024/01/23 19:25:23;;;;;;;16.17;15.27;;;;;;;;;;4901821;29;20043;-91
2024/01/23 19:28:45;;;;;;;18.00;16.98;;;;;;;;;;4942868;28;20109;-91
2024/01/23 19:39:03;;;;;;;20.55;19.25;;;;;;;;;;4900400;29;20437;-90
2024/01/23 19:45:59;;;;;;;24.23;22.77;;;;;;;;;;4900754;29;20036;-88
2024/01/23 21:25:41;;;;;;;30.73;24.67;;;;;;;;;;4897414;29;19919;-89
2024/01/23 21:54:21;;;;;;;45.80;34.00;;;;;;;;;;4974829;28;20053;-89
2024/01/23 23:21:49;;;;;;;50.10;29.15;;;;;;;;;;4925586;28;20055;-89
2024/01/23 23:28:45;;;;;;;54.40;23.08;;;;;;;;;;4959806;28;20035;-88
